Time;durP1;ratioP1;P1;durP2;ratioP2;P2;SDS_P1;SDS_P2;PMS_P1;PMS_P2;Temp;Humidity;BMP_temperature;BMP_pressure;BME280_temperature;BME280_humidity;BME280_pressure;Samples;Min_cycle;Max_cycle;Signal;HPM_P1;HPM_P2
2022/07/26 00:01:21;;;;;;;;;;;19.80;99.90;;;;;;5115172;28;19915;-68
2022/07/26 00:03:47;;;;;;;;;;;19.80;99.90;;;;;;5117327;28;20297;-68
2022/07/26 00:06:13;;;;;;;;;;;19.80;99.90;;;;;;5117772;28;19949;-68
2022/07/26 00:08:38;;;;;;;;;;;19.80;99.90;;;;;;5099171;28;19952;-68
2022/07/26 00:11:04;;;;;;;;;;;19.80;99.90;;;;;;5117437;28;19908;-68
2022/07/26 00:13:30;;;;;;;;;;;19.70;99.90;;;;;;5099527;28;20426;-67
2022/07/26 00:15:55;;;;;;;;;;;19.70;99.90;;;;;;5117558;28;20277;-67
2022/07/26 00:18:21;;;;;;;;;;;19.70;99.90;;;;;;5117395;28;19979;-67
2022/07/26 00:20:47;;;;;;;;;;;19.60;99.90;;;;;;5117453;28;19908;-67
2022/07/26 00:23:12;;;;;;;;;;;19.60;99.90;;;;;;5117385;28;19987;-67
2022/07/26 00:25:38;;;;;;;;;;;19.60;99.90;;;;;;5117134;28;19918;-67
2022/07/26 00:28:04;;;;;;;;;;;19.60;99.90;;;;;;5117127;28;20472;-67
2022/07/26 00:30:29;;;;;;;;;;;19.60;99.90;;;;;;5117398;28;20002;-67
2022/07/26 00:32:55;;;;;;;;;;;19.60;99.90;;;;;;5117248;28;20362;-67
2022/07/26 00:35:20;;;;;;;;;;;19.60;99.90;;;;;;5117016;28;19951;-67
2022/07/26 00:37:46;;;;;;;;;;;19.50;99.90;;;;;;5117182;28;20354;-67
2022/07/26 00:40:12;;;;;;;;;;;19.50;99.90;;;;;;5116834;28;20267;-67
2022/07/26 00:42:38;;;;;;;;;;;19.50;99.90;;;;;;5116988;28;20364;-67
2022/07/26 00:45:04;;;;;;;;;;;19.50;99.90;;;;;;5098907;28;19915;-67
2022/07/26 00:47:30;;;;;;;;;;;19.50;99.90;;;;;;5117006;28;19922;-67
2022/07/26 00:49:56;;;;;;;;;;;19.50;99.90;;;;;;5116583;28;20374;-67
2022/07/26 00:52:21;;;;;;;;;;;19.40;99.90;;;;;;5116838;28;19957;-67
2022/07/26 00:54:47;;;;;;;;;;;19.40;99.90;;;;;;5116542;28;20353;-67
2022/07/26 00:57:13;;;;;;;;;;;19.40;99.90;;;;;;5116742;28;19908;-67
2022/07/26 00:59:38;;;;;;;;;;;19.40;99.90;;;;;;5116705;28;20328;-67
2022/07/26 01:02:05;;;;;;;;;;;19.30;99.90;;;;;;5116424;28;19912;-67
2022/07/26 01:04:30;;;;;;;;;;;19.30;99.90;;;;;;5116076;28;19965;-67
2022/07/26 01:06:56;;;;;;;;;;;19.30;99.90;;;;;;5098397;28;20285;-67
2022/07/26 01:09:21;;;;;;;;;;;19.30;99.90;;;;;;5116261;28;19908;-67
2022/07/26 01:11:47;;;;;;;;;;;19.10;99.90;;;;;;5115685;28;19907;-67
2022/07/26 01:14:13;;;;;;;;;;;19.10;99.90;;;;;;5116428;28;20467;-67
2022/07/26 01:16:38;;;;;;;;;;;19.10;99.90;;;;;;5116419;28;19951;-67
2022/07/26 01:19:04;;;;;;;;;;;19.00;99.90;;;;;;5116047;28;19908;-67
2022/07/26 01:21:30;;;;;;;;;;;19.00;99.90;;;;;;5116039;28;19941;-67
2022/07/26 01:23:55;;;;;;;;;;;19.00;99.90;;;;;;5115918;28;19915;-67
2022/07/26 01:26:21;;;;;;;;;;;18.90;99.90;;;;;;5115928;28;19914;-67
2022/07/26 01:28:48;;;;;;;;;;;18.90;99.90;;;;;;5115899;28;19908;-68
2022/07/26 01:31:14;;;;;;;;;;;18.80;99.90;;;;;;5115906;28;20435;-67
2022/07/26 01:33:39;;;;;;;;;;;18.80;99.90;;;;;;5116022;28;19908;-67
2022/07/26 01:36:05;;;;;;;;;;;18.70;99.90;;;;;;5116071;28;19908;-68
2022/07/26 01:38:30;;;;;;;;;;;18.70;99.90;;;;;;5115748;28;20339;-68
2022/07/26 01:40:56;;;;;;;;;;;18.60;99.90;;;;;;5097615;28;19943;-68
2022/07/26 01:43:21;;;;;;;;;;;18.60;99.90;;;;;;5115605;28;20320;-68
2022/07/26 01:45:47;;;;;;;;;;;18.50;99.90;;;;;;5115868;28;19908;-69
2022/07/26 01:48:12;;;;;;;;;;;18.40;99.90;;;;;;5115515;28;19908;-68
2022/07/26 01:50:38;;;;;;;;;;;18.40;99.90;;;;;;5115747;28;19908;-68
2022/07/26 01:53:03;;;;;;;;;;;18.30;99.90;;;;;;5115367;28;19922;-68
2022/07/26 01:55:29;;;;;;;;;;;18.30;99.90;;;;;;5115426;28;19911;-69
2022/07/26 01:57:54;;;;;;;;;;;18.30;99.90;;;;;;5097084;28;20439;-68
2022/07/26 02:00:20;;;;;;;;;;;18.30;99.90;;;;;;5115275;28;19908;-68
2022/07/26 02:02:45;;;;;;;;;;;18.20;99.90;;;;;;5115038;28;19915;-68
2022/07/26 02:05:11;;;;;;;;;;;18.20;99.90;;;;;;5115241;28;19961;-68
2022/07/26 02:07:39;;;;;;;;;;;18.10;99.90;;;;;;5115122;28;20434;-68
2022/07/26 02:10:05;;;;;;;;;;;18.10;99.90;;;;;;5115177;28;19915;-69
2022/07/26 02:12:31;;;;;;;;;;;18.10;99.90;;;;;;5115339;28;19908;-67
2022/07/26 02:14:57;;;;;;;;;;;18.10;99.90;;;;;;5115086;28;20281;-68
2022/07/26 02:17:23;;;;;;;;;;;18.10;99.90;;;;;;5115113;28;20326;-67
2022/07/26 02:19:49;;;;;;;;;;;18.10;99.90;;;;;;5114883;28;20002;-69
2022/07/26 02:22:14;;;;;;;;;;;18.10;99.90;;;;;;5096690;28;19907;-67
2022/07/26 02:24:40;;;;;;;;;;;18.10;99.90;;;;;;5114365;28;19915;-68
2022/07/26 02:27:06;;;;;;;;;;;18.20;99.90;;;;;;5114788;28;20334;-68
2022/07/26 02:29:31;;;;;;;;;;;18.20;99.90;;;;;;5096700;28;19915;-68
2022/07/26 02:31:56;;;;;;;;;;;18.20;99.90;;;;;;5114764;28;19957;-68
2022/07/26 02:34:23;;;;;;;;;;;18.30;99.90;;;;;;5096825;28;19954;-69
2022/07/26 02:36:48;;;;;;;;;;;18.30;99.90;;;;;;5114655;28;19965;-68
2022/07/26 02:39:14;;;;;;;;;;;18.30;99.90;;;;;;5114599;28;19908;-68
2022/07/26 02:41:39;;;;;;;;;;;18.30;99.90;;;;;;5114811;28;20262;-68
2022/07/26 02:44:05;;;;;;;;;;;18.30;99.90;;;;;;5114481;28;20366;-68
2022/07/26 02:46:31;;;;;;;;;;;18.40;99.90;;;;;;5114775;28;19948;-68
2022/07/26 02:48:58;;;;;;;;;;;18.40;99.90;;;;;;5114445;28;19908;-68
2022/07/26 02:51:23;;;;;;;;;;;18.40;99.90;;;;;;5096498;28;20331;-70
2022/07/26 02:53:49;;;;;;;;;;;18.40;99.90;;;;;;5114396;28;19985;-68
2022/07/26 02:56:14;;;;;;;;;;;18.50;99.90;;;;;;5114340;28;19912;-67
2022/07/26 02:58:40;;;;;;;;;;;18.40;99.90;;;;;;5096008;28;20370;-69
2022/07/26 03:01:05;;;;;;;;;;;18.50;99.90;;;;;;5114266;28;19908;-68
2022/07/26 03:03:31;;;;;;;;;;;18.50;99.90;;;;;;5113903;28;20327;-67
2022/07/26 03:05:56;;;;;;;;;;;18.50;99.90;;;;;;5114478;28;19908;-67
2022/07/26 03:08:22;;;;;;;;;;;18.50;99.90;;;;;;5114442;28;19912;-67
2022/07/26 03:10:47;;;;;;;;;;;18.50;99.90;;;;;;5114133;28;19916;-67
2022/07/26 03:13:13;;;;;;;;;;;18.50;99.90;;;;;;5114098;28;20382;-68
2022/07/26 03:15:38;;;;;;;;;;;18.50;99.90;;;;;;5114310;28;19907;-68
2022/07/26 03:18:04;;;;;;;;;;;18.50;99.90;;;;;;5114032;28;20267;-68
2022/07/26 03:20:29;;;;;;;;;;;18.50;99.90;;;;;;5114264;28;20007;-67
2022/07/26 03:22:55;;;;;;;;;;;18.50;99.90;;;;;;5114016;28;19911;-67
2022/07/26 03:25:20;;;;;;;;;;;18.40;99.90;;;;;;5113894;28;19908;-67
2022/07/26 03:27:46;;;;;;;;;;;18.50;99.90;;;;;;5114200;28;19912;-67
2022/07/26 03:30:11;;;;;;;;;;;18.50;99.90;;;;;;5114208;28;19908;-67
2022/07/26 03:32:37;;;;;;;;;;;18.50;99.90;;;;;;5114169;28;19923;-67
2022/07/26 03:35:03;;;;;;;;;;;18.50;99.90;;;;;;5114971;28;19907;-68
2022/07/26 03:37:29;;;;;;;;;;;18.50;99.90;;;;;;5118069;28;20002;-67
2022/07/26 03:39:54;;;;;;;;;;;18.50;99.90;;;;;;5118123;28;20049;-68
2022/07/26 03:42:20;;;;;;;;;;;18.50;99.90;;;;;;5117912;28;20018;-68
2022/07/26 03:44:46;;;;;;;;;;;18.50;99.90;;;;;;5117889;28;19915;-68
2022/07/26 03:47:11;;;;;;;;;;;18.50;99.90;;;;;;5117875;28;19918;-68
2022/07/26 03:49:37;;;;;;;;;;;18.50;99.90;;;;;;5117723;28;20362;-67
2022/07/26 03:52:02;;;;;;;;;;;18.50;99.90;;;;;;5117845;28;19953;-67
2022/07/26 03:54:28;;;;;;;;;;;18.50;99.90;;;;;;5117972;28;19919;-67
2022/07/26 03:56:53;;;;;;;;;;;18.40;99.90;;;;;;5117733;28;19911;-67
2022/07/26 03:59:19;;;;;;;;;;;18.50;99.90;;;;;;5117915;28;19914;-67
2022/07/26 04:01:45;;;;;;;;;;;18.50;99.90;;;;;;5117595;28;19908;-67
2022/07/26 04:04:11;;;;;;;;;;;18.40;99.90;;;;;;5117325;28;19920;-67
2022/07/26 04:06:38;;;;;;;;;;;18.40;99.90;;;;;;5099297;28;19915;-67
2022/07/26 04:09:04;;;;;;;;;;;18.40;99.90;;;;;;5117520;28;19908;-67
2022/07/26 04:11:29;;;;;;;;;;;18.40;99.90;;;;;;5117710;28;20404;-68
2022/07/26 04:13:55;;;;;;;;;;;18.40;99.90;;;;;;5117669;28;19911;-68
2022/07/26 04:16:21;;;;;;;;;;;18.40;99.90;;;;;;5099377;28;19915;-67
2022/07/26 04:18:46;;;;;;;;;;;18.40;99.90;;;;;;5117265;28;19907;-67
2022/07/26 04:21:12;;;;;;;;;;;18.40;99.90;;;;;;5117512;28;19930;-67
2022/07/26 04:23:37;;;;;;;;;;;18.30;99.90;;;;;;5117097;28;19968;-68
2022/07/26 04:26:03;;;;;;;;;;;18.30;99.90;;;;;;5117410;28;19911;-67
2022/07/26 04:28:28;;;;;;;;;;;18.40;99.90;;;;;;5117377;28;19908;-68
2022/07/26 04:30:55;;;;;;;;;;;18.40;99.90;;;;;;5117368;28;20011;-68
2022/07/26 04:33:20;;;;;;;;;;;18.40;99.90;;;;;;5116986;28;19958;-68
2022/07/26 04:35:46;;;;;;;;;;;18.40;99.90;;;;;;5117220;28;19931;-68
2022/07/26 04:38:11;;;;;;;;;;;18.30;99.90;;;;;;5117211;28;19914;-68
2022/07/26 04:40:37;;;;;;;;;;;18.40;99.90;;;;;;5116945;28;19954;-67
2022/07/26 04:43:03;;;;;;;;;;;18.30;99.90;;;;;;5116987;28;19911;-67
2022/07/26 04:45:39;;;;;;;;;;;18.20;99.90;;;;;;5116763;28;20027;-67
2022/07/26 04:48:05;;;;;;;;;;;18.10;99.90;;;;;;5116116;28;19908;-70
2022/07/26 04:50:30;;;;;;;;;;;18.00;99.90;;;;;;5116669;28;19915;-67
2022/07/26 04:52:56;;;;;;;;;;;18.00;99.90;;;;;;5116630;28;20324;-67
2022/07/26 04:55:22;;;;;;;;;;;17.90;99.90;;;;;;5116574;28;19908;-68
2022/07/26 04:57:47;;;;;;;;;;;17.90;99.90;;;;;;5116801;28;19908;-68
2022/07/26 05:00:14;;;;;;;;;;;17.90;99.90;;;;;;5116764;28;20374;-68
2022/07/26 05:02:40;;;;;;;;;;;17.90;99.90;;;;;;5116073;28;20349;-68
2022/07/26 05:05:06;;;;;;;;;;;17.90;99.90;;;;;;5098526;28;19919;-68
2022/07/26 05:07:48;;;;;;;;;;;17.80;99.90;;;;;;5116598;28;19908;-67
2022/07/26 05:10:14;;;;;;;;;;;17.80;99.90;;;;;;5116556;28;20318;-67
2022/07/26 05:12:40;;;;;;;;;;;17.80;99.90;;;;;;5116449;28;20378;-67
2022/07/26 05:15:06;;;;;;;;;;;17.70;99.90;;;;;;5097981;28;19915;-68
2022/07/26 05:17:31;;;;;;;;;;;17.60;99.90;;;;;;5116414;28;20255;-67
2022/07/26 05:19:57;;;;;;;;;;;17.50;99.90;;;;;;5116160;28;19912;-68
2022/07/26 05:22:22;;;;;;;;;;;17.40;99.90;;;;;;5097982;28;20004;-68
2022/07/26 05:24:48;;;;;;;;;;;17.30;99.90;;;;;;5116004;28;19919;-67
2022/07/26 05:27:13;;;;;;;;;;;17.20;99.90;;;;;;5116228;28;19907;-67
2022/07/26 05:29:39;;;;;;;;;;;17.10;99.90;;;;;;5115964;28;20415;-67
2022/07/26 05:32:04;;;;;;;;;;;17.10;99.90;;;;;;5116166;28;19954;-67
2022/07/26 05:34:30;;;;;;;;;;;17.00;99.90;;;;;;5116055;28;19929;-67
2022/07/26 05:36:55;;;;;;;;;;;17.10;99.90;;;;;;5097886;28;20374;-67
2022/07/26 05:39:21;;;;;;;;;;;17.10;99.90;;;;;;5115990;28;19998;-67
2022/07/26 05:41:46;;;;;;;;;;;17.10;99.90;;;;;;5115642;28;19907;-67
2022/07/26 05:44:12;;;;;;;;;;;17.20;99.90;;;;;;5115655;28;19912;-67
2022/07/26 05:46:37;;;;;;;;;;;17.20;99.90;;;;;;5115510;28;20409;-67
2022/07/26 05:49:03;;;;;;;;;;;17.30;99.90;;;;;;5115659;28;19907;-67
2022/07/26 05:51:29;;;;;;;;;;;17.30;99.90;;;;;;5115535;28;19908;-67
2022/07/26 05:53:55;;;;;;;;;;;17.20;99.90;;;;;;5115715;28;20371;-67
2022/07/26 05:56:20;;;;;;;;;;;17.20;99.90;;;;;;5115360;28;19908;-67
2022/07/26 05:58:46;;;;;;;;;;;17.20;99.90;;;;;;5115298;28;19911;-67
2022/07/26 06:01:11;;;;;;;;;;;17.20;99.90;;;;;;5115299;28;19995;-67
2022/07/26 06:03:37;;;;;;;;;;;17.30;99.90;;;;;;5115109;28;19916;-69
2022/07/26 06:06:02;;;;;;;;;;;17.30;99.90;;;;;;5115459;28;19908;-67
2022/07/26 06:08:28;;;;;;;;;;;17.40;99.90;;;;;;5115127;28;19980;-68
2022/07/26 06:10:54;;;;;;;;;;;17.40;99.90;;;;;;5115368;28;20358;-67
2022/07/26 06:13:19;;;;;;;;;;;17.40;99.90;;;;;;5096719;28;20002;-67
2022/07/26 06:15:45;;;;;;;;;;;17.50;99.90;;;;;;5115058;28;19907;-67
2022/07/26 06:18:11;;;;;;;;;;;17.50;99.90;;;;;;5115273;28;20061;-67
2022/07/26 06:20:38;;;;;;;;;;;17.50;99.90;;;;;;5114933;28;19907;-67
2022/07/26 06:23:04;;;;;;;;;;;17.60;99.90;;;;;;5107276;28;19932;-67
2022/07/26 06:25:30;;;;;;;;;;;17.80;99.90;;;;;;5095640;28;19972;-68
2022/07/26 06:27:55;;;;;;;;;;;17.90;99.90;;;;;;5093817;28;19924;-67
2022/07/26 06:30:21;;;;;;;;;;;18.00;99.90;;;;;;5094571;28;19908;-67
2022/07/26 06:32:46;;;;;;;;;;;18.20;99.90;;;;;;5092027;28;20460;-67
2022/07/26 06:35:12;;;;;;;;;;;18.50;99.90;;;;;;5072720;28;19908;-67
2022/07/26 06:37:38;;;;;;;;;;;19.20;99.90;;;;;;5094614;28;19908;-68
2022/07/26 06:40:05;;;;;;;;;;;20.20;99.90;;;;;;5094330;28;20373;-68
2022/07/26 06:42:31;;;;;;;;;;;19.60;99.90;;;;;;5093163;28;19998;-68
2022/07/26 06:44:57;;;;;;;;;;;19.30;99.90;;;;;;5107704;28;19915;-68
2022/07/26 06:47:23;;;;;;;;;;;19.20;99.90;;;;;;5095062;28;19912;-67
2022/07/26 06:49:48;;;;;;;;;;;19.20;99.90;;;;;;5089562;28;19938;-66
2022/07/26 06:52:14;;;;;;;;;;;19.10;99.90;;;;;;5093837;28;19935;-65
2022/07/26 06:54:39;;;;;;;;;;;19.20;99.90;;;;;;5094216;28;19908;-66
2022/07/26 06:57:05;;;;;;;;;;;19.60;99.90;;;;;;5075822;28;19963;-66
2022/07/26 06:59:30;;;;;;;;;;;19.80;99.90;;;;;;5093643;28;19995;-66
2022/07/26 07:01:55;;;;;;;;;;;20.00;99.90;;;;;;5093724;28;19914;-66
2022/07/26 07:04:21;;;;;;;;;;;20.40;99.90;;;;;;5076779;28;19917;-67
2022/07/26 07:06:46;;;;;;;;;;;20.00;99.90;;;;;;5085021;28;19917;-63
2022/07/26 07:09:12;;;;;;;;;;;19.70;99.90;;;;;;5088992;28;19909;-66
2022/07/26 07:11:37;;;;;;;;;;;20.30;99.90;;;;;;5092757;28;19912;-67
2022/07/26 07:14:03;;;;;;;;;;;20.10;99.90;;;;;;5079275;28;20260;-66
2022/07/26 07:16:29;;;;;;;;;;;20.20;99.90;;;;;;5073744;28;19913;-66
2022/07/26 07:18:54;;;;;;;;;;;20.20;99.90;;;;;;5073677;28;19909;-65
2022/07/26 07:21:19;;;;;;;;;;;20.20;99.90;;;;;;5073340;28;20290;-65
2022/07/26 07:23:45;;;;;;;;;;;19.90;99.90;;;;;;5073274;28;20011;-66
2022/07/26 07:26:10;;;;;;;;;;;19.70;99.90;;;;;;5055434;28;19912;-66
2022/07/26 07:28:37;;;;;;;;;;;19.70;99.90;;;;;;5079803;28;19912;-66
2022/07/26 07:31:03;;;;;;;;;;;19.60;99.90;;;;;;5090506;28;20284;-66
2022/07/26 07:33:29;;;;;;;;;;;19.40;99.90;;;;;;5089884;28;19912;-66
2022/07/26 07:35:54;;;;;;;;;;;19.30;99.90;;;;;;5093355;28;19908;-66
2022/07/26 07:38:20;;;;;;;;;;;19.30;99.90;;;;;;5093348;28;19909;-66
2022/07/26 07:40:45;;;;;;;;;;;19.30;99.90;;;;;;5093395;28;19912;-66
2022/07/26 07:43:11;;;;;;;;;;;19.30;99.90;;;;;;5074410;28;19920;-65
2022/07/26 07:45:36;;;;;;;;;;;19.30;99.90;;;;;;5086324;28;19912;-66
2022/07/26 07:48:02;;;;;;;;;;;20.20;99.90;;;;;;5093150;28;20330;-66
2022/07/26 07:50:27;;;;;;;;;;;21.10;99.90;;;;;;5092959;28;19943;-66
2022/07/26 07:52:53;;;;;;;;;;;21.10;99.90;;;;;;5093146;28;19999;-66
2022/07/26 07:55:19;;;;;;;;;;;21.00;99.90;;;;;;5075438;28;20281;-66
2022/07/26 07:57:44;;;;;;;;;;;20.90;99.90;;;;;;5091884;28;20354;-66
2022/07/26 08:00:11;;;;;;;;;;;20.90;99.90;;;;;;5091480;28;20293;-66
2022/07/26 08:02:37;;;;;;;;;;;20.90;99.90;;;;;;5090774;28;19914;-67
2022/07/26 08:05:03;;;;;;;;;;;20.90;99.90;;;;;;5093205;28;20360;-66
2022/07/26 08:07:29;;;;;;;;;;;22.10;99.90;;;;;;5092899;28;19916;-66
2022/07/26 08:09:56;;;;;;;;;;;22.00;99.90;;;;;;5090718;28;19951;-66
2022/07/26 08:12:21;;;;;;;;;;;21.40;99.90;;;;;;5093371;28;19940;-66
2022/07/26 08:14:47;;;;;;;;;;;21.70;99.90;;;;;;5073994;28;19912;-66
2022/07/26 08:17:12;;;;;;;;;;;22.20;99.90;;;;;;5092929;28;19948;-66
2022/07/26 08:19:38;;;;;;;;;;;22.70;99.90;;;;;;5061513;28;19932;-66
2022/07/26 08:22:03;;;;;;;;;;;23.80;99.90;;;;;;5088529;28;20328;-66
2022/07/26 08:24:29;;;;;;;;;;;23.80;99.90;;;;;;5088034;28;20397;-65
2022/07/26 08:26:54;;;;;;;;;;;22.90;99.90;;;;;;5076311;28;19960;-65
2022/07/26 08:29:20;;;;;;;;;;;23.10;99.90;;;;;;5041735;28;19908;-65
2022/07/26 08:31:46;;;;;;;;;;;23.70;99.90;;;;;;5076314;28;20337;-65
2022/07/26 08:34:11;;;;;;;;;;;24.00;99.90;;;;;;5076513;28;19954;-66
2022/07/26 08:36:37;;;;;;;;;;;23.90;99.90;;;;;;5076478;28;19916;-65
2022/07/26 08:39:02;;;;;;;;;;;24.30;99.90;;;;;;5076428;28;19908;-66
2022/07/26 08:41:28;;;;;;;;;;;23.50;99.90;;;;;;5076371;28;20317;-65
2022/07/26 08:43:53;;;;;;;;;;;23.50;99.90;;;;;;5075977;28;19916;-66
2022/07/26 08:46:21;;;;;;;;;;;24.30;99.90;;;;;;5076016;28;19912;-66
2022/07/26 08:48:46;;;;;;;;;;;24.90;99.90;;;;;;5076019;28;19908;-66
2022/07/26 08:51:12;;;;;;;;;;;25.30;99.90;;;;;;5076189;28;19908;-66
2022/07/26 08:53:38;;;;;;;;;;;25.50;99.90;;;;;;5076144;28;19936;-65
2022/07/26 08:56:03;;;;;;;;;;;24.60;99.90;;;;;;5076119;28;20362;-65
2022/07/26 08:58:31;;;;;;;;;;;24.60;99.90;;;;;;5076110;28;19915;-65
2022/07/26 09:01:12;;;;;;;;;;;24.90;99.90;;;;;;5075811;28;19915;-66
2022/07/26 09:03:39;;;;;;;;;;;24.90;99.90;;;;;;5075514;28;19920;-65
2022/07/26 09:06:20;;;;;;;;;;;24.80;99.90;;;;;;5075853;28;19916;-66
2022/07/26 09:08:47;;;;;;;;;;;25.10;99.90;;;;;;5075822;28;20035;-65
2022/07/26 09:11:29;;;;;;;;;;;23.80;99.90;;;;;;5075704;28;19908;-65
2022/07/26 09:13:56;;;;;;;;;;;23.40;99.90;;;;;;5057446;28;20283;-65
2022/07/26 09:16:22;;;;;;;;;;;23.30;99.90;;;;;;5075812;28;19908;-65
2022/07/26 09:18:47;;;;;;;;;;;23.20;99.90;;;;;;5075439;28;19909;-65
2022/07/26 09:21:29;;;;;;;;;;;22.60;99.90;;;;;;5075263;28;20287;-65
2022/07/26 09:23:55;;;;;;;;;;;22.20;99.90;;;;;;5075475;28;19936;-65
2022/07/26 09:26:20;;;;;;;;;;;21.90;99.90;;;;;;5075290;28;20362;-65
2022/07/26 09:29:00;;;;;;;;;;;21.70;99.90;;;;;;5075192;28;20004;-65
2022/07/26 09:31:25;;;;;;;;;;;21.90;99.90;;;;;;5075253;28;19908;-65
2022/07/26 09:33:51;;;;;;;;;;;22.30;99.90;;;;;;5074734;28;19915;-65
2022/07/26 09:36:17;;;;;;;;;;;22.50;99.90;;;;;;5075303;28;19915;-65
2022/07/26 09:38:46;;;;;;;;;;;22.20;99.90;;;;;;5075275;28;19912;-66
2022/07/26 09:41:16;;;;;;;;;;;22.20;99.90;;;;;;5074866;28;19909;-65
2022/07/26 09:43:41;;;;;;;;;;;22.10;99.90;;;;;;5075176;28;19912;-65
2022/07/26 09:46:09;;;;;;;;;;;21.60;99.90;;;;;;5075219;28;19974;-65
2022/07/26 09:48:38;;;;;;;;;;;20.70;99.90;;;;;;5074740;28;19909;-65
2022/07/26 09:51:04;;;;;;;;;;;20.10;99.90;;;;;;5075167;28;20389;-65
2022/07/26 09:53:37;;;;;;;;;;;19.80;99.90;;;;;;5074975;28;19912;-65
2022/07/26 09:56:02;;;;;;;;;;;19.50;99.90;;;;;;5074905;28;19909;-65
2022/07/26 09:58:29;;;;;;;;;;;18.80;99.90;;;;;;5074981;28;20286;-65
2022/07/26 10:00:54;;;;;;;;;;;18.50;99.90;;;;;;5056651;28;19909;-64
2022/07/26 10:03:20;;;;;;;;;;;18.30;99.90;;;;;;5056246;28;20375;-65
2022/07/26 10:05:46;;;;;;;;;;;18.20;99.90;;;;;;5074778;28;19909;-64
2022/07/26 10:08:11;;;;;;;;;;;18.10;99.90;;;;;;5074688;28;19909;-64
2022/07/26 10:10:44;;;;;;;;;;;18.10;99.90;;;;;;5074668;28;19914;-64
2022/07/26 10:13:09;;;;;;;;;;;18.30;99.90;;;;;;5056815;28;20282;-65
2022/07/26 10:18:36;;;;;;;;;;;18.40;99.90;;;;;;5070909;28;19913;-64
2022/07/26 10:21:20;;;;;;;;;;;18.50;99.90;;;;;;5069466;28;19956;-64
2022/07/26 10:23:57;;;;;;;;;;;18.80;99.90;;;;;;5070837;28;19916;-64
2022/07/26 10:34:48;;;;;;;;;;;22.10;99.90;;;;;;5070904;28;19913;-65
2022/07/26 10:37:23;;;;;;;;;;;23.60;99.90;;;;;;5070716;28;19999;-65
2022/07/26 10:40:09;;;;;;;;;;;24.60;99.90;;;;;;5071121;28;20371;-65
2022/07/26 10:42:42;;;;;;;;;;;24.90;99.90;;;;;;5070689;28;20434;-65
2022/07/26 10:45:15;;;;;;;;;;;24.30;99.90;;;;;;5070988;28;19912;-65
2022/07/26 10:48:01;;;;;;;;;;;24.60;99.90;;;;;;5070838;28;20007;-65
2022/07/26 10:50:33;;;;;;;;;;;24.60;99.90;;;;;;5070581;28;19909;-65
2022/07/26 10:52:59;;;;;;;;;;;24.10;99.90;;;;;;5070476;28;19912;-65
2022/07/26 10:55:24;;;;;;;;;;;23.40;99.90;;;;;;5070519;28;19931;-65
2022/07/26 10:57:50;;;;;;;;;;;23.00;99.90;;;;;;5070656;28;19974;-65
2022/07/26 11:00:17;;;;;;;;;;;23.00;99.90;;;;;;5070562;28;19909;-65
2022/07/26 11:02:45;;;;;;;;;;;23.20;99.90;;;;;;5070294;28;19991;-65
2022/07/26 11:05:13;;;;;;;;;;;22.80;99.90;;;;;;5070525;28;19916;-65
2022/07/26 11:07:58;;;;;;;;;;;22.90;99.90;;;;;;5070489;28;19909;-65
2022/07/26 11:10:25;;;;;;;;;;;22.40;99.90;;;;;;5068812;28;19916;-65
2022/07/26 11:13:10;;;;;;;;;;;22.20;99.90;;;;;;5070308;28;19913;-65
2022/07/26 11:15:37;;;;;;;;;;;21.90;99.90;;;;;;5068757;28;20386;-65
2022/07/26 11:18:04;;;;;;;;;;;22.30;99.90;;;;;;5070313;28;20363;-65
2022/07/26 11:20:30;;;;;;;;;;;22.80;99.90;;;;;;5085964;28;20389;-65
2022/07/26 11:22:55;;;;;;;;;;;22.60;99.90;;;;;;5068618;28;19909;-65
2022/07/26 11:25:21;;;;;;;;;;;22.40;99.90;;;;;;5069932;28;19912;-65
2022/07/26 11:28:03;;;;;;;;;;;22.30;99.90;;;;;;5069819;28;19935;-65
2022/07/26 11:30:28;;;;;;;;;;;22.10;99.90;;;;;;5069769;28;19908;-65
2022/07/26 11:32:57;;;;;;;;;;;22.30;99.90;;;;;;5074288;28;19920;-65
2022/07/26 11:35:24;;;;;;;;;;;22.40;99.90;;;;;;5090203;28;19909;-65
2022/07/26 11:37:57;;;;;;;;;;;22.20;99.90;;;;;;5090126;28;19912;-65
2022/07/26 11:40:42;;;;;;;;;;;21.70;99.90;;;;;;5090022;28;19908;-65
2022/07/26 11:43:08;;;;;;;;;;;22.00;99.90;;;;;;5089813;28;19915;-65
2022/07/26 11:45:34;;;;;;;;;;;22.00;99.90;;;;;;5061387;28;20286;-67
2022/07/26 11:47:59;;;;;;;;;;;22.20;99.90;;;;;;5076153;28;20290;-67
2022/07/26 11:50:25;;;;;;;;;;;21.90;99.90;;;;;;5076122;28;19908;-67
2022/07/26 11:52:51;;;;;;;;;;;21.90;99.90;;;;;;5076340;28;19913;-67
2022/07/26 11:55:31;;;;;;;;;;;22.00;99.90;;;;;;5076388;28;19908;-66
2022/07/26 11:58:03;;;;;;;;;;;21.90;99.90;;;;;;5058461;28;19959;-67
2022/07/26 12:00:28;;;;;;;;;;;21.80;99.90;;;;;;5076311;28;19909;-66
2022/07/26 12:02:55;;;;;;;;;;;22.20;99.90;;;;;;5076204;28;19908;-66
2022/07/26 12:05:21;;;;;;;;;;;22.30;99.90;;;;;;5075887;28;19908;-66
2022/07/26 12:08:03;;;;;;;;;;;22.40;99.90;;;;;;5075915;28;20325;-66
2022/07/26 12:10:29;;;;;;;;;;;22.40;99.90;;;;;;5075811;28;20030;-67
2022/07/26 12:13:11;;;;;;;;;;;22.20;99.90;;;;;;5075763;28;19919;-66
2022/07/26 12:15:51;;;;;;;;;;;21.70;99.90;;;;;;5076045;28;19909;-66
2022/07/26 12:18:21;;;;;;;;;;;21.40;99.90;;;;;;5075764;28;19977;-67
2022/07/26 12:21:03;;;;;;;;;;;21.00;99.90;;;;;;5075897;28;19909;-67
2022/07/26 12:23:45;;;;;;;;;;;20.50;99.90;;;;;;5075511;28;19908;-67
2022/07/26 12:26:27;;;;;;;;;;;20.10;99.90;;;;;;5075609;28;20367;-67
2022/07/26 12:28:53;;;;;;;;;;;20.20;99.90;;;;;;5057299;28;19909;-67
2022/07/26 12:31:33;;;;;;;;;;;20.20;99.90;;;;;;5075568;28;20263;-66
2022/07/26 12:33:59;;;;;;;;;;;20.10;99.90;;;;;;5075150;28;19920;-66
2022/07/26 12:36:24;;;;;;;;;;;20.00;99.90;;;;;;5040812;28;20278;-65
2022/07/26 12:38:51;;;;;;;;;;;20.10;99.90;;;;;;5075218;28;19909;-65
2022/07/26 12:41:33;;;;;;;;;;;20.60;99.90;;;;;;5057601;28;19936;-65
2022/07/26 12:43:58;;;;;;;;;;;20.90;99.90;;;;;;5075332;28;20264;-65
2022/07/26 12:46:24;;;;;;;;;;;20.80;99.90;;;;;;5075291;28;19958;-65
2022/07/26 12:48:49;;;;;;;;;;;20.60;99.90;;;;;;5075313;28;19912;-65
2022/07/26 12:51:15;;;;;;;;;;;20.40;99.90;;;;;;5075151;28;19920;-66
2022/07/26 12:53:40;;;;;;;;;;;20.30;99.90;;;;;;5074761;28;19960;-66
2022/07/26 12:56:06;;;;;;;;;;;20.70;99.90;;;;;;5074263;28;19909;-66
2022/07/26 12:58:31;;;;;;;;;;;21.00;99.90;;;;;;5074960;28;19908;-66
2022/07/26 13:00:57;;;;;;;;;;;21.40;99.90;;;;;;5075050;28;19960;-66
2022/07/26 13:03:22;;;;;;;;;;;21.70;99.90;;;;;;5074963;28;19909;-66
2022/07/26 13:05:48;;;;;;;;;;;22.00;99.90;;;;;;5074865;28;20362;-66
2022/07/26 13:08:13;;;;;;;;;;;21.80;99.90;;;;;;5074731;28;19996;-66
2022/07/26 13:10:40;;;;;;;;;;;21.80;99.90;;;;;;5074929;28;19912;-66
2022/07/26 13:13:05;;;;;;;;;;;22.20;99.90;;;;;;5074471;28;19935;-66
2022/07/26 13:15:31;;;;;;;;;;;22.80;99.90;;;;;;5074696;28;19909;-66
2022/07/26 13:17:57;;;;;;;;;;;22.60;99.90;;;;;;5074373;28;19909;-66
2022/07/26 13:20:22;;;;;;;;;;;22.20;99.90;;;;;;5074668;28;19909;-66
2022/07/26 13:22:48;;;;;;;;;;;22.40;99.90;;;;;;5074392;28;19923;-66
2022/07/26 13:25:13;;;;;;;;;;;22.70;99.90;;;;;;5074616;28;19912;-66
2022/07/26 13:27:39;;;;;;;;;;;22.60;99.90;;;;;;5074250;28;19956;-66
2022/07/26 13:30:04;;;;;;;;;;;22.90;99.90;;;;;;5074445;28;19909;-66
2022/07/26 13:32:30;;;;;;;;;;;23.50;99.90;;;;;;5074017;28;19912;-66
2022/07/26 13:34:55;;;;;;;;;;;23.50;99.90;;;;;;5074198;28;19908;-66
2022/07/26 13:37:21;;;;;;;;;;;23.50;99.90;;;;;;5074353;28;20066;-66
2022/07/26 13:39:46;;;;;;;;;;;23.00;99.90;;;;;;5074285;28;19909;-66
2022/07/26 13:42:12;;;;;;;;;;;23.00;99.90;;;;;;5074128;28;19908;-66
2022/07/26 13:44:38;;;;;;;;;;;22.70;99.90;;;;;;5039485;28;20011;-67
2022/07/26 13:47:03;;;;;;;;;;;22.10;99.90;;;;;;5073980;28;19909;-66
2022/07/26 13:49:29;;;;;;;;;;;21.60;99.90;;;;;;5073823;28;19912;-66
2022/07/26 13:51:55;;;;;;;;;;;21.10;99.90;;;;;;5074132;28;19916;-65
2022/07/26 13:54:22;;;;;;;;;;;20.70;99.90;;;;;;5073910;28;19913;-65
2022/07/26 13:56:48;;;;;;;;;;;20.60;99.90;;;;;;5074098;28;20386;-65
2022/07/26 13:59:13;;;;;;;;;;;20.30;99.90;;;;;;5073817;28;19909;-65
2022/07/26 14:01:39;;;;;;;;;;;20.20;99.90;;;;;;5073701;28;20007;-65
2022/07/26 14:04:05;;;;;;;;;;;20.00;99.90;;;;;;5074012;28;20283;-65
2022/07/26 14:06:31;;;;;;;;;;;19.90;99.90;;;;;;5073918;28;20363;-65
2022/07/26 14:08:57;;;;;;;;;;;19.90;99.90;;;;;;5073410;28;19909;-66
2022/07/26 14:11:23;;;;;;;;;;;19.90;99.90;;;;;;5073872;28;19944;-65
2022/07/26 14:13:49;;;;;;;;;;;20.00;99.90;;;;;;5073751;28;19920;-67
2022/07/26 14:16:14;;;;;;;;;;;20.00;99.90;;;;;;5073589;28;20011;-65
2022/07/26 14:18:40;;;;;;;;;;;20.00;99.90;;;;;;5055931;28;19912;-65
2022/07/26 14:21:05;;;;;;;;;;;20.20;99.90;;;;;;5073702;28;20003;-65
2022/07/26 14:23:31;;;;;;;;;;;20.60;99.90;;;;;;5073557;28;19915;-65
2022/07/26 14:25:56;;;;;;;;;;;20.90;99.90;;;;;;5073747;28;19908;-65